createdAt,value
2018-12-12T00:00:39.705Z,62.62
2018-12-12T00:03:08.623Z,63.17
2018-12-12T00:05:37.541Z,62.10
2018-12-12T00:08:06.419Z,61.81
2018-12-12T00:10:35.428Z,62.92
2018-12-12T00:13:04.411Z,61.82
2018-12-12T00:15:33.310Z,62.10
2018-12-12T00:18:02.461Z,62.40
2018-12-12T00:20:31.507Z,61.37
2018-12-12T00:23:00.644Z,61.66
2018-12-12T00:25:29.590Z,61.96
2018-12-12T00:27:58.478Z,61.51
2018-12-12T00:30:27.413Z,62.71
2018-12-12T00:32:56.309Z,61.17
2018-12-12T00:35:25.400Z,68.06
2018-12-12T00:37:54.413Z,63.70
2018-12-12T00:40:23.325Z,61.16
2018-12-12T00:42:52.121Z,61.24
2018-12-12T00:45:21.021Z,62.37
2018-12-12T00:47:50.105Z,62.78
2018-12-12T00:50:19.001Z,62.32
2018-12-12T00:52:47.898Z,64.08
2018-12-12T00:55:16.931Z,61.92
2018-12-12T00:57:46.277Z,60.77
2018-12-12T01:00:15.193Z,61.77
2018-12-12T01:02:44.118Z,62.18
2018-12-12T01:05:13.125Z,60.89
2018-12-12T01:07:42.042Z,61.28
2018-12-12T01:10:10.967Z,62.70
2018-12-12T01:12:39.988Z,66.85
2018-12-12T01:15:09.022Z,61.41
2018-12-12T01:17:37.946Z,61.02
2018-12-12T01:20:06.784Z,63.16
2018-12-12T01:22:35.787Z,61.13
2018-12-12T01:25:04.814Z,61.61
2018-12-12T01:27:33.745Z,62.56
2018-12-12T01:30:02.994Z,61.38
2018-12-12T01:32:32.008Z,63.26
2018-12-12T01:35:00.901Z,61.49
2018-12-12T01:37:29.945Z,62.65
2018-12-12T01:39:58.944Z,63.55
2018-12-12T01:42:27.861Z,63.25
2018-12-12T01:44:56.756Z,64.03
2018-12-12T01:47:25.673Z,63.58
2018-12-12T01:49:54.592Z,63.79
2018-12-12T01:52:23.635Z,63.08
2018-12-12T01:54:52.782Z,63.48
2018-12-12T01:57:21.672Z,63.71
2018-12-12T01:59:50.569Z,64.29
2018-12-12T02:02:19.479Z,64.23
2018-12-12T02:04:48.487Z,65.25
2018-12-12T02:07:17.586Z,65.60
2018-12-12T02:09:46.377Z,64.99
2018-12-12T02:12:15.305Z,65.74
2018-12-12T02:14:44.200Z,65.28
2018-12-12T02:17:13.221Z,64.48
2018-12-12T02:19:42.161Z,67.38
2018-12-12T02:22:11.176Z,63.55
2018-12-12T02:24:40.196Z,63.74
2018-12-12T02:27:09.091Z,65.14
2018-12-12T02:29:38.133Z,64.69
2018-12-12T02:32:07.054Z,63.81
2018-12-12T02:34:35.940Z,67.25
2018-12-12T02:37:04.873Z,63.27
2018-12-12T02:39:33.806Z,64.49
2018-12-12T02:42:02.629Z,63.32
2018-12-12T02:44:31.625Z,65.12
2018-12-12T02:47:00.538Z,63.51
2018-12-12T02:49:29.448Z,63.05
2018-12-12T02:51:58.325Z,63.00
2018-12-12T02:54:27.265Z,63.55
2018-12-12T02:56:56.161Z,62.88
2018-12-12T02:59:25.060Z,63.13
2018-12-12T03:01:54.150Z,63.91
2018-12-12T03:04:23.184Z,64.04
2018-12-12T03:06:52.184Z,63.52
2018-12-12T03:09:21.083Z,63.80
2018-12-12T03:11:49.894Z,63.82
2018-12-12T03:14:18.769Z,64.29
2018-12-12T03:16:47.554Z,64.54
2018-12-12T03:19:16.443Z,63.42
2018-12-12T03:21:45.453Z,63.51
2018-12-12T03:24:14.448Z,65.02
2018-12-12T03:26:43.241Z,63.93
2018-12-12T03:29:12.016Z,63.83
2018-12-12T03:31:41.417Z,63.79
2018-12-12T03:34:10.356Z,64.33
2018-12-12T03:36:39.182Z,65.72
2018-12-12T03:39:08.135Z,64.87
2018-12-12T03:41:37.211Z,64.75
2018-12-12T03:44:06.149Z,65.46
2018-12-12T03:46:35.174Z,66.26
2018-12-12T03:49:04.080Z,64.28
2018-12-12T03:51:33.010Z,65.51
2018-12-12T03:54:02.042Z,64.95
2018-12-12T03:56:30.968Z,67.16
2018-12-12T03:58:59.781Z,65.15
2018-12-12T04:01:29.738Z,65.54
2018-12-12T04:03:58.843Z,65.67
2018-12-12T04:06:27.760Z,67.12
2018-12-12T04:08:56.747Z,68.12
2018-12-12T04:11:25.661Z,70.06
2018-12-12T04:13:54.700Z,65.87
2018-12-12T04:16:23.857Z,65.42
2018-12-12T04:18:53.197Z,65.20
2018-12-12T04:21:22.091Z,65.87
2018-12-12T04:26:43.226Z,65.25
2018-12-12T04:29:12.108Z,66.78
2018-12-12T04:31:41.547Z,71.40
2018-12-12T04:34:10.460Z,66.67
2018-12-12T04:36:39.401Z,65.78
2018-12-12T04:39:08.303Z,66.71
2018-12-12T04:41:37.216Z,66.54
2018-12-12T04:44:06.300Z,68.14
2018-12-12T04:46:35.297Z,66.51
2018-12-12T04:49:04.234Z,66.20
2018-12-12T04:51:33.334Z,66.77
2018-12-12T04:54:02.116Z,66.52
2018-12-12T04:56:31.158Z,67.17
2018-12-12T04:59:00.422Z,66.62
2018-12-12T05:01:29.349Z,68.07
2018-12-12T05:03:58.260Z,66.19
2018-12-12T05:06:27.422Z,67.47
2018-12-12T05:08:56.338Z,66.10
2018-12-12T05:11:25.270Z,66.25
2018-12-12T05:13:54.081Z,66.43
2018-12-12T05:16:23.019Z,68.86
2018-12-12T05:18:51.938Z,66.04
2018-12-12T05:21:20.741Z,66.89
2018-12-12T05:23:49.641Z,66.26
2018-12-12T05:26:18.565Z,66.72
2018-12-12T05:28:47.384Z,65.51
2018-12-12T05:31:16.299Z,66.75
2018-12-12T05:33:45.174Z,65.79
2018-12-12T05:36:14.051Z,67.16
2018-12-12T05:38:43.060Z,67.83
2018-12-12T05:41:11.951Z,66.79
2018-12-12T05:43:40.747Z,65.79
2018-12-12T05:46:09.753Z,66.61
2018-12-12T05:48:38.577Z,67.26
2018-12-12T05:51:07.514Z,70.55
2018-12-12T05:53:36.449Z,72.79
2018-12-12T05:56:05.483Z,72.24
2018-12-12T05:58:34.599Z,72.69
2018-12-12T06:01:03.658Z,71.98
2018-12-12T06:03:33.759Z,72.65
2018-12-12T06:06:03.093Z,72.18
2018-12-12T06:08:32.108Z,71.47
2018-12-12T06:11:01.195Z,71.60
2018-12-12T06:13:30.224Z,73.65
2018-12-12T06:15:59.118Z,70.67
2018-12-12T06:18:28.024Z,71.29
2018-12-12T06:20:57.037Z,72.17
2018-12-12T06:23:26.086Z,71.19
2018-12-12T06:25:54.894Z,72.04
2018-12-12T06:28:23.884Z,70.96
2018-12-12T06:30:52.713Z,70.60
2018-12-12T06:33:21.598Z,75.64
2018-12-12T06:35:50.521Z,72.70
2018-12-12T06:38:19.846Z,71.96
2018-12-12T06:40:49.034Z,71.82
2018-12-12T06:43:18.917Z,70.25
2018-12-12T06:45:47.805Z,69.62
2018-12-12T06:48:16.774Z,69.28
2018-12-12T06:50:45.686Z,70.24
2018-12-12T06:53:14.701Z,71.33
2018-12-12T06:55:43.662Z,71.14
2018-12-12T06:58:12.662Z,70.44
2018-12-12T07:00:41.739Z,70.37
2018-12-12T07:03:10.553Z,72.09
2018-12-12T07:05:39.481Z,70.96
2018-12-12T07:08:08.381Z,71.65
2018-12-12T07:10:37.302Z,71.96
2018-12-12T07:13:06.213Z,71.67
2018-12-12T07:15:34.997Z,71.96
2018-12-12T07:18:03.825Z,71.49
2018-12-12T07:20:32.756Z,71.09
2018-12-12T07:23:01.644Z,72.34
2018-12-12T07:25:30.573Z,71.05
2018-12-12T07:27:59.396Z,71.04
2018-12-12T07:30:28.477Z,69.29
2018-12-12T07:32:57.488Z,69.29
2018-12-12T07:35:26.484Z,70.87
2018-12-12T07:37:55.428Z,68.58
2018-12-12T07:40:24.445Z,67.75
2018-12-12T07:42:53.472Z,68.77
2018-12-12T07:45:22.413Z,67.77
2018-12-12T07:47:51.371Z,67.75
2018-12-12T07:50:20.183Z,70.82
2018-12-12T07:52:49.200Z,66.88
2018-12-12T07:55:18.185Z,66.19
2018-12-12T07:57:47.109Z,66.61
2018-12-12T08:00:15.975Z,67.87
2018-12-12T08:02:45.088Z,67.24
2018-12-12T08:05:14.025Z,67.75
2018-12-12T08:07:42.936Z,67.38
2018-12-12T08:10:11.969Z,66.89
2018-12-12T08:12:40.885Z,67.54
2018-12-12T08:15:09.812Z,65.98
2018-12-12T08:17:39.041Z,66.10
2018-12-12T08:20:07.898Z,70.78
2018-12-12T08:22:37.114Z,65.35
2018-12-12T08:25:06.340Z,64.65
2018-12-12T08:27:35.249Z,64.19
2018-12-12T08:30:04.843Z,64.20
2018-12-12T08:32:33.881Z,64.06
2018-12-12T08:35:02.969Z,68.09
2018-12-12T08:37:31.956Z,63.86
2018-12-12T08:40:00.792Z,63.95
2018-12-12T08:42:29.732Z,64.91
2018-12-12T08:44:58.641Z,62.95
2018-12-12T08:47:27.529Z,62.76
2018-12-12T08:49:56.556Z,63.37
2018-12-12T08:52:25.366Z,63.60
2018-12-12T08:54:54.813Z,64.81
2018-12-12T08:57:23.873Z,63.01
2018-12-12T08:59:53.517Z,61.37
2018-12-12T09:02:22.335Z,62.51
2018-12-12T09:04:51.243Z,62.38
2018-12-12T09:07:20.205Z,59.96
2018-12-12T09:09:49.080Z,59.69
2018-12-12T09:12:18.198Z,59.13
2018-12-12T09:14:47.539Z,59.34
2018-12-12T09:17:16.549Z,59.78
2018-12-12T09:19:45.504Z,59.04
2018-12-12T09:22:14.425Z,58.68
2018-12-12T09:24:43.216Z,59.26
2018-12-12T09:27:12.141Z,62.40
2018-12-12T09:29:41.046Z,58.52
2018-12-12T09:32:10.045Z,56.19
2018-12-12T09:34:38.873Z,55.69
2018-12-12T09:37:07.985Z,57.39
2018-12-12T09:39:36.996Z,56.99
2018-12-12T09:42:05.849Z,58.02
2018-12-12T09:44:34.965Z,56.50
2018-12-12T09:47:05.549Z,56.68
2018-12-12T09:49:34.798Z,52.99
2018-12-12T09:52:03.933Z,53.09
2018-12-12T09:54:33.465Z,53.04
2018-12-12T09:57:02.515Z,52.69
2018-12-12T09:59:31.450Z,53.73
2018-12-12T10:02:00.373Z,54.72
2018-12-12T10:04:29.653Z,53.46
2018-12-12T10:06:58.690Z,56.67
2018-12-12T10:09:27.630Z,52.53
2018-12-12T10:11:56.528Z,52.81
2018-12-12T10:14:26.299Z,51.19
2018-12-12T10:16:55.519Z,50.34
2018-12-12T10:19:24.528Z,50.99
2018-12-12T10:21:54.602Z,51.75
2018-12-12T10:24:24.929Z,52.57
2018-12-12T10:26:53.837Z,49.34
2018-12-12T10:29:24.846Z,49.52
2018-12-12T10:31:53.920Z,49.39
2018-12-12T10:34:25.921Z,48.87
2018-12-12T10:36:55.066Z,52.03
2018-12-12T10:39:24.109Z,50.04
2018-12-12T10:41:52.997Z,48.85
2018-12-12T10:44:21.919Z,50.02
2018-12-12T10:46:50.828Z,49.65
2018-12-12T10:49:19.848Z,49.64
2018-12-12T10:51:48.894Z,49.72
2018-12-12T10:54:17.921Z,51.91
2018-12-12T10:56:47.076Z,51.56
2018-12-12T10:59:15.997Z,54.64
2018-12-12T11:01:46.958Z,53.58
2018-12-12T11:04:17.834Z,53.97
2018-12-12T11:06:46.686Z,51.00
2018-12-12T11:09:15.592Z,52.32
2018-12-12T11:11:44.532Z,52.92
2018-12-12T11:14:13.494Z,52.70
2018-12-12T11:16:42.444Z,51.27
2018-12-12T11:19:11.397Z,52.17
2018-12-12T11:21:40.393Z,54.25
2018-12-12T11:24:09.412Z,52.69
2018-12-12T11:26:38.339Z,51.08
2018-12-12T11:29:07.242Z,52.39
2018-12-12T11:31:36.257Z,50.91
2018-12-12T11:34:05.286Z,51.04
2018-12-12T11:36:34.473Z,51.02
2018-12-12T11:39:04.751Z,48.91
2018-12-12T11:41:33.690Z,49.72
2018-12-12T11:44:02.573Z,48.38
2018-12-12T11:46:31.571Z,49.59
2018-12-12T11:49:00.362Z,54.13
2018-12-12T11:51:29.895Z,50.98
2018-12-12T11:53:58.791Z,50.48
2018-12-12T11:56:27.714Z,51.18
2018-12-12T11:58:56.616Z,51.35
2018-12-12T12:01:25.637Z,52.53
2018-12-12T12:03:56.843Z,55.02
2018-12-12T12:06:25.875Z,52.74
2018-12-12T12:08:54.873Z,53.35
2018-12-12T12:11:23.772Z,53.59
2018-12-12T12:13:52.684Z,55.48
2018-12-12T12:16:21.780Z,55.34
2018-12-12T12:18:50.984Z,54.88
2018-12-12T12:21:19.997Z,54.37
2018-12-12T12:23:49.016Z,54.48
2018-12-12T12:26:18.102Z,56.99
2018-12-12T12:28:47.107Z,55.15
2018-12-12T12:31:17.107Z,54.57
2018-12-12T12:33:46.400Z,55.44
2018-12-12T12:36:15.320Z,55.45
2018-12-12T12:38:44.431Z,56.36
2018-12-12T12:41:13.442Z,57.01
2018-12-12T12:43:42.661Z,56.15
2018-12-12T12:46:11.600Z,54.84
2018-12-12T12:48:40.616Z,55.19
2018-12-12T12:51:09.526Z,58.18
2018-12-12T12:53:38.661Z,55.92
2018-12-12T12:56:07.521Z,57.94
2018-12-12T12:58:36.596Z,56.43
2018-12-12T13:01:05.799Z,60.20
2018-12-12T13:03:35.106Z,56.96
2018-12-12T13:06:04.538Z,55.96
2018-12-12T13:08:33.621Z,53.79
2018-12-12T13:11:02.538Z,54.09
2018-12-12T13:13:31.643Z,52.72
2018-12-12T13:16:00.719Z,54.36
2018-12-12T13:18:30.606Z,55.12
2018-12-12T13:20:59.633Z,54.79
2018-12-12T13:23:28.636Z,56.39
2018-12-12T13:25:57.654Z,55.32
2018-12-12T13:28:26.687Z,54.94
2018-12-12T13:30:55.897Z,55.47
2018-12-12T13:33:24.996Z,55.25
2018-12-12T13:35:53.932Z,56.63
2018-12-12T13:38:23.136Z,56.57
2018-12-12T13:40:52.121Z,56.12
2018-12-12T13:43:21.197Z,58.00
2018-12-12T13:45:50.235Z,56.87
2018-12-12T13:48:19.130Z,57.11
2018-12-12T13:50:48.777Z,56.32
2018-12-12T13:53:18.038Z,58.13
2018-12-12T13:55:47.461Z,56.24
2018-12-12T13:58:16.856Z,56.27
2018-12-12T14:00:45.816Z,57.07
2018-12-12T14:03:14.736Z,57.38
2018-12-12T14:05:44.009Z,56.84
2018-12-12T14:08:13.340Z,57.26
2018-12-12T14:10:42.605Z,58.91
2018-12-12T14:13:11.779Z,57.88
2018-12-12T14:15:40.880Z,57.04
2018-12-12T14:18:10.294Z,57.51
2018-12-12T14:20:39.303Z,57.18
2018-12-12T14:23:09.070Z,56.81
2018-12-12T14:25:38.274Z,56.76
2018-12-12T14:28:07.389Z,58.83
2018-12-12T14:30:36.820Z,56.50
2018-12-12T14:33:05.918Z,56.79
2018-12-12T14:35:34.829Z,57.16
2018-12-12T14:38:04.269Z,56.40
2018-12-12T14:40:33.565Z,57.73
2018-12-12T14:43:02.601Z,58.98
2018-12-12T14:45:31.998Z,57.59
2018-12-12T14:48:00.929Z,57.74
2018-12-12T14:50:30.426Z,58.83
2018-12-12T14:52:59.461Z,57.87
2018-12-12T14:55:28.971Z,58.16
2018-12-12T14:57:57.885Z,62.27
2018-12-12T15:00:27.546Z,60.10
2018-12-12T15:02:57.269Z,59.26
2018-12-12T15:05:26.421Z,60.14
2018-12-12T15:07:55.703Z,60.36
2018-12-12T15:10:25.055Z,60.83
2018-12-12T15:12:54.442Z,60.97
2018-12-12T15:15:25.989Z,60.40
2018-12-12T15:17:56.163Z,61.05
2018-12-12T15:20:25.325Z,61.68
2018-12-12T15:22:54.800Z,61.84
2018-12-12T15:25:23.817Z,62.27
2018-12-12T15:27:52.874Z,62.84
2018-12-12T15:30:22.020Z,62.55
2018-12-12T15:32:52.349Z,62.74
2018-12-12T15:35:21.441Z,63.73
2018-12-12T15:37:50.790Z,63.24
2018-12-12T15:40:19.867Z,63.44
2018-12-12T15:42:48.869Z,63.37
2018-12-12T15:45:17.847Z,65.29
2018-12-12T15:47:47.147Z,64.01
2018-12-12T15:50:16.409Z,63.79
2018-12-12T15:52:45.514Z,63.73
2018-12-12T15:55:14.597Z,63.64
2018-12-12T15:57:43.708Z,63.73
2018-12-12T16:00:13.173Z,63.32
2018-12-12T16:02:42.573Z,64.55
2018-12-12T16:05:12.155Z,65.11
2018-12-12T16:07:41.476Z,65.46
2018-12-12T16:10:10.736Z,65.97
2018-12-12T16:12:40.048Z,66.17
2018-12-12T16:15:08.965Z,66.03
2018-12-12T16:17:38.025Z,65.52
2018-12-12T16:20:08.024Z,66.00
2018-12-12T16:22:37.130Z,65.70
2018-12-12T16:25:06.602Z,66.13
2018-12-12T16:27:35.638Z,65.86
2018-12-12T16:30:05.393Z,66.38
2018-12-12T16:32:34.446Z,66.79
2018-12-12T16:35:03.489Z,67.18
2018-12-12T16:37:32.473Z,66.95
2018-12-12T16:40:01.593Z,68.20
2018-12-12T16:42:30.641Z,67.97
2018-12-12T16:45:00.046Z,69.72
2018-12-12T16:47:28.941Z,68.13
2018-12-12T16:49:58.262Z,67.88
2018-12-12T16:52:27.074Z,68.85
2018-12-12T16:54:56.278Z,69.16
2018-12-12T16:57:25.373Z,68.79
2018-12-12T16:59:54.471Z,69.04
2018-12-12T17:02:23.512Z,69.06
2018-12-12T17:04:53.288Z,69.98
2018-12-12T17:07:22.285Z,69.93
2018-12-12T17:09:51.193Z,70.13
2018-12-12T17:12:20.376Z,70.22
2018-12-12T17:14:49.803Z,71.15
2018-12-12T17:17:18.913Z,70.55
2018-12-12T17:19:48.004Z,70.60
2018-12-12T17:22:16.922Z,70.45
2018-12-12T17:24:46.038Z,70.94
2018-12-12T17:27:14.942Z,69.45
2018-12-12T17:29:43.967Z,70.53
2018-12-12T17:32:13.057Z,69.36
2018-12-12T17:34:42.085Z,70.45
2018-12-12T17:37:11.017Z,71.85
2018-12-12T17:39:39.835Z,70.45
2018-12-12T17:42:08.828Z,71.03
2018-12-12T17:44:37.833Z,71.38
2018-12-12T17:47:06.764Z,71.55
2018-12-12T17:49:35.679Z,71.58
2018-12-12T17:52:05.174Z,72.06
2018-12-12T17:54:34.272Z,72.13
2018-12-12T17:57:03.325Z,72.49
2018-12-12T17:59:32.345Z,72.68
2018-12-12T18:02:01.304Z,72.20
2018-12-12T18:04:30.207Z,72.86
2018-12-12T18:06:59.138Z,72.60
2018-12-12T18:09:28.370Z,71.14
2018-12-12T18:11:57.282Z,72.04
2018-12-12T18:14:26.271Z,73.10
2018-12-12T18:16:55.269Z,72.77
2018-12-12T18:19:24.173Z,71.58
2018-12-12T18:21:53.416Z,71.95
2018-12-12T18:24:22.544Z,71.59
2018-12-12T18:26:51.541Z,71.83
2018-12-12T18:29:22.017Z,72.04
2018-12-12T18:31:51.319Z,71.72
2018-12-12T18:34:20.516Z,72.37
2018-12-12T18:36:49.562Z,72.80
2018-12-12T18:39:19.126Z,72.75
2018-12-12T18:41:48.066Z,72.69
2018-12-12T18:44:16.990Z,72.66
2018-12-12T18:46:45.994Z,72.52
2018-12-12T18:49:14.999Z,72.80
2018-12-12T18:51:43.895Z,72.87
2018-12-12T18:54:13.313Z,72.74
2018-12-12T18:56:42.364Z,73.10
2018-12-12T18:59:11.325Z,72.79
2018-12-12T19:01:40.321Z,72.88
2018-12-12T19:04:09.416Z,72.82
2018-12-12T19:06:38.346Z,72.66
2018-12-12T19:09:07.605Z,71.47
2018-12-12T19:11:36.826Z,71.33
2018-12-12T19:14:05.873Z,71.50
2018-12-12T19:16:34.806Z,72.21
2018-12-12T19:19:03.859Z,72.42
2018-12-12T19:21:32.754Z,71.70
2018-12-12T19:24:01.778Z,73.41
2018-12-12T19:26:30.957Z,71.43
2018-12-12T19:29:00.069Z,70.11
2018-12-12T19:31:29.904Z,71.01
2018-12-12T19:33:58.826Z,70.65
2018-12-12T19:36:28.615Z,70.47
2018-12-12T19:38:57.739Z,70.72
2018-12-12T19:41:26.836Z,70.17
2018-12-12T19:43:55.862Z,76.62
2018-12-12T19:46:24.896Z,70.83
2018-12-12T19:48:53.794Z,70.36
2018-12-12T19:51:22.828Z,71.02
2018-12-12T19:53:51.934Z,70.32
2018-12-12T19:56:20.829Z,69.98
2018-12-12T19:58:49.953Z,71.11
2018-12-12T20:01:18.872Z,70.17
2018-12-12T20:03:47.933Z,69.99
2018-12-12T20:06:16.959Z,70.45
2018-12-12T20:08:45.851Z,69.20
2018-12-12T20:11:15.185Z,69.74
2018-12-12T20:13:45.209Z,69.09
2018-12-12T20:16:14.224Z,68.90
2018-12-12T20:18:43.447Z,69.96
2018-12-12T20:21:17.224Z,70.12
2018-12-12T20:23:46.614Z,69.14
2018-12-12T20:26:15.545Z,73.92
2018-12-12T20:28:44.537Z,71.43
2018-12-12T20:31:13.752Z,70.00
2018-12-12T20:33:42.599Z,70.57
2018-12-12T20:36:11.496Z,70.22
2018-12-12T20:38:40.501Z,69.74
2018-12-12T20:41:09.408Z,70.08
2018-12-12T20:43:38.521Z,68.85
2018-12-12T20:46:07.645Z,69.87
2018-12-12T20:48:36.572Z,70.32
2018-12-12T20:51:05.421Z,72.23
2018-12-12T20:53:34.401Z,70.12
2018-12-12T20:56:03.568Z,71.27
2018-12-12T20:58:32.853Z,70.34
2018-12-12T21:01:01.853Z,75.51
2018-12-12T21:03:36.296Z,70.36
2018-12-12T21:06:06.529Z,71.31
2018-12-12T21:08:35.574Z,71.06
2018-12-12T21:11:04.516Z,71.28
2018-12-12T21:13:33.559Z,71.86
2018-12-12T21:16:02.489Z,71.98
2018-12-12T21:18:31.600Z,72.40
2018-12-12T21:21:00.877Z,72.65
2018-12-12T21:23:29.979Z,73.22
2018-12-12T21:25:59.393Z,73.54
2018-12-12T21:28:28.386Z,74.41
2018-12-12T21:30:57.993Z,73.16
2018-12-12T21:33:26.917Z,72.89
2018-12-12T21:36:00.823Z,73.37
2018-12-12T21:38:26.767Z,73.91
2018-12-12T21:40:56.477Z,74.41
2018-12-12T21:43:25.524Z,77.19
2018-12-12T21:45:54.550Z,73.54
2018-12-12T21:48:23.452Z,74.78
2018-12-12T21:50:52.868Z,74.77
2018-12-12T21:53:24.061Z,75.34
2018-12-12T21:55:53.169Z,73.98
2018-12-12T21:58:22.061Z,72.80
2018-12-12T22:00:50.986Z,73.51
2018-12-12T22:03:19.902Z,74.57
2018-12-12T22:05:49.426Z,74.62
2018-12-12T22:08:21.185Z,73.01
2018-12-12T22:10:50.218Z,73.40
2018-12-12T22:13:19.100Z,74.00
2018-12-12T22:15:48.121Z,74.62
2018-12-12T22:18:17.169Z,74.01
2018-12-12T22:20:46.338Z,74.28
2018-12-12T22:23:15.721Z,75.68
2018-12-12T22:25:44.621Z,75.27
2018-12-12T22:28:13.657Z,74.94
2018-12-12T22:30:42.873Z,75.64
2018-12-12T22:33:11.777Z,75.87
2018-12-12T22:35:40.785Z,74.94
2018-12-12T22:38:09.787Z,75.99
2018-12-12T22:40:38.718Z,76.34
2018-12-12T22:43:07.623Z,76.67
2018-12-12T22:45:36.692Z,76.40
2018-12-12T22:48:05.764Z,77.12
2018-12-12T22:50:34.669Z,76.04
2018-12-12T22:53:03.795Z,75.84
2018-12-12T22:55:32.665Z,76.35
2018-12-12T22:58:01.574Z,76.00
2018-12-12T23:00:34.710Z,76.32
2018-12-12T23:03:03.633Z,76.53
2018-12-12T23:05:32.968Z,77.21
2018-12-12T23:08:01.873Z,76.92
2018-12-12T23:10:30.761Z,77.33
2018-12-12T23:12:59.757Z,78.03
2018-12-12T23:15:28.753Z,77.67
2018-12-12T23:17:57.662Z,77.58
2018-12-12T23:20:26.560Z,77.65
2018-12-12T23:22:55.575Z,77.58
2018-12-12T23:25:24.478Z,76.98
2018-12-12T23:27:53.414Z,76.31
2018-12-12T23:30:22.462Z,76.12
2018-12-12T23:32:52.194Z,75.82
2018-12-12T23:35:21.118Z,76.83
2018-12-12T23:37:50.121Z,77.32
2018-12-12T23:40:19.039Z,77.19
2018-12-12T23:42:47.942Z,75.98
2018-12-12T23:45:16.870Z,75.99
2018-12-12T23:47:45.981Z,76.76
2018-12-12T23:50:15.026Z,75.69
2018-12-12T23:52:44.045Z,76.41
2018-12-12T23:55:12.949Z,75.94
2018-12-12T23:57:41.958Z,77.14
